Time;durP1;ratioP1;P1;durP2;ratioP2;P2;SDS_P1;SDS_P2;PMS_P1;PMS_P2;Temp;Humidity;BMP_temperature;BMP_pressure;BME280_temperature;BME280_humidity;BME280_pressure;Samples;Min_cycle;Max_cycle;Signal;HPM_P1;HPM_P2
2021/05/12 00:08:57;;;;;;;27.33;1.05;;;7.40;99.90;;;;;;21165677;28;20047;-43
2021/05/12 00:18:59;;;;;;;0.52;0.20;;;7.40;99.90;;;;;;21085655;28;20040;-43
2021/05/12 00:29:02;;;;;;;11.65;0.60;;;7.40;99.90;;;;;;21028407;28;20045;-43
2021/05/12 00:39:06;;;;;;;0.10;0.00;;;7.40;99.90;;;;;;20996336;28;20098;-44
2021/05/12 00:49:08;;;;;;;0.00;0.00;;;7.40;99.90;;;;;;21056014;28;20043;-43
2021/05/12 00:59:10;;;;;;;0.00;0.00;;;7.30;99.90;;;;;;21160704;28;20043;-43
2021/05/12 01:09:12;;;;;;;0.10;0.00;;;7.20;99.90;;;;;;21160241;28;20101;-42
2021/05/12 01:19:14;;;;;;;0.57;0.00;;;7.10;99.90;;;;;;21159624;28;20039;-43
2021/05/12 01:29:17;;;;;;;0.00;0.00;;;7.00;99.90;;;;;;21141989;28;20418;-43
2021/05/12 01:39:19;;;;;;;0.70;0.00;;;6.90;99.90;;;;;;21158029;28;20039;-43
2021/05/12 01:49:21;;;;;;;0.00;0.00;;;6.80;99.90;;;;;;21125201;28;20097;-43
2021/05/12 01:59:23;;;;;;;0.28;0.00;;;6.70;99.90;;;;;;21005587;28;20040;-43
2021/05/12 02:09:24;;;;;;;2.55;0.00;;;6.60;99.90;;;;;;20988206;28;20044;-43
2021/05/12 02:19:27;;;;;;;0.00;0.00;;;6.60;99.90;;;;;;20985177;28;20053;-43
2021/05/12 02:29:29;;;;;;;0.20;0.00;;;6.50;99.90;;;;;;21071250;28;20055;-44
2021/05/12 02:39:33;;;;;;;0.17;0.00;;;6.50;99.90;;;;;;21070791;28;20098;-43
2021/05/12 02:49:37;;;;;;;0.20;0.00;;;6.50;99.90;;;;;;21106684;28;20040;-43
2021/05/12 02:59:39;;;;;;;1.23;0.00;;;6.40;99.90;;;;;;21154139;28;20112;-43
2021/05/12 03:09:40;;;;;;;0.00;0.00;;;6.30;99.90;;;;;;21154811;28;20092;-44
2021/05/12 03:19:42;;;;;;;0.00;0.00;;;6.20;99.90;;;;;;21164107;28;20040;-44
2021/05/12 03:29:44;;;;;;;0.00;0.00;;;6.20;99.90;;;;;;21151120;28;20031;-45
2021/05/12 03:39:46;;;;;;;0.00;0.00;;;6.10;99.90;;;;;;21168018;28;20051;-44
2021/05/12 03:49:48;;;;;;;0.00;0.00;;;6.10;99.90;;;;;;21167063;28;20092;-44
2021/05/12 03:59:49;;;;;;;0.00;0.00;;;6.10;99.90;;;;;;21167009;28;20039;-43
2021/05/12 04:09:51;;;;;;;0.00;0.00;;;6.00;99.90;;;;;;21165574;28;20493;-44
2021/05/12 04:19:53;;;;;;;0.00;0.00;;;6.20;99.90;;;;;;21164125;28;20048;-46
2021/05/12 04:29:55;;;;;;;0.00;0.00;;;6.20;99.90;;;;;;21147000;28;20381;-46
2021/05/12 04:39:57;;;;;;;0.00;0.00;;;6.20;99.90;;;;;;21162940;28;20096;-46
2021/05/12 04:49:59;;;;;;;0.00;0.00;;;6.20;99.90;;;;;;21162890;28;20439;-46
2021/05/12 05:00:01;;;;;;;0.00;0.00;;;6.20;99.90;;;;;;21162812;28;20069;-45
2021/05/12 05:10:05;;;;;;;0.00;0.00;;;6.10;99.90;;;;;;21143194;28;20040;-45
2021/05/12 05:20:07;;;;;;;0.32;0.00;;;6.10;99.90;;;;;;21160979;28;20442;-45
2021/05/12 05:30:10;;;;;;;2.17;0.00;;;6.10;99.90;;;;;;21142073;28;20044;-45
2021/05/12 05:40:30;;;;;;;0.00;0.00;;;6.40;99.90;;;;;;21158892;28;20039;-45
2021/05/12 05:50:51;;;;;;;0.00;0.00;;;6.60;99.90;;;;;;21158736;28;20100;-45
2021/05/12 06:01:12;;;;;;;0.00;0.00;;;6.90;99.90;;;;;;21157850;28;20104;-45
2021/05/12 06:11:15;;;;;;;0.00;0.00;;;7.10;99.90;;;;;;21155589;28;20039;-46
2021/05/12 06:21:36;;;;;;;0.00;0.00;;;7.30;99.90;;;;;;21156020;28;20096;-45
2021/05/12 06:31:57;;;;;;;0.00;0.00;;;7.50;99.90;;;;;;21155280;28;20051;-45
2021/05/12 06:42:19;;;;;;;0.00;0.00;;;7.60;99.90;;;;;;21155753;28;20061;-45
2021/05/12 06:52:21;;;;;;;1.23;0.00;;;7.80;99.90;;;;;;21165074;28;20088;-45
2021/05/12 07:02:45;;;;;;;0.00;0.00;;;7.90;99.90;;;;;;20910906;28;20268;-45
2021/05/12 07:12:49;;;;;;;0.00;0.00;;;8.00;99.90;;;;;;20909139;28;20065;-46
2021/05/12 07:22:52;;;;;;;0.25;0.00;;;8.10;99.90;;;;;;20909442;28;20475;-46
2021/05/12 07:33:08;;;;;;;0.30;0.00;;;8.30;99.90;;;;;;20954827;28;20545;-47
2021/05/12 07:43:11;;;;;;;0.00;0.00;;;8.80;99.90;;;;;;21134354;28;20039;-46
2021/05/12 07:53:17;;;;;;;0.00;0.00;;;9.30;99.90;;;;;;21167575;28;20048;-46
2021/05/12 08:03:19;;;;;;;0.00;0.00;;;9.90;99.90;;;;;;21166299;28;20040;-46
2021/05/12 08:13:21;;;;;;;0.00;0.00;;;10.50;99.90;;;;;;21171616;28;20032;-44
2021/05/12 08:23:24;;;;;;;0.10;0.00;;;11.90;99.90;;;;;;21167505;28;20040;-45
2021/05/12 08:33:26;;;;;;;0.30;0.10;;;12.80;99.90;;;;;;21165308;28;20073;-45
2021/05/12 08:43:30;;;;;;;0.95;0.00;;;15.40;99.90;;;;;;21164772;28;20051;-46
2021/05/12 08:53:32;;;;;;;0.00;0.00;;;15.70;99.90;;;;;;21163415;28;20028;-46
2021/05/12 09:03:34;;;;;;;0.22;0.00;;;15.00;99.90;;;;;;21161535;28;20040;-45
2021/05/12 09:13:39;;;;;;;0.80;0.00;;;14.50;99.90;;;;;;21159658;28;20481;-45
2021/05/12 09:23:43;;;;;;;0.08;0.00;;;14.40;99.90;;;;;;21160970;28;20043;-47
2021/05/12 09:33:48;;;;;;;0.10;0.00;;;15.40;99.90;;;;;;21159573;28;20100;-46
2021/05/12 09:43:54;;;;;;;0.22;0.00;;;15.70;99.90;;;;;;21152576;28;20094;-46
2021/05/12 09:54:02;;;;;;;0.20;0.10;;;14.40;99.90;;;;;;21157953;28;20097;-46
2021/05/12 10:04:31;;;;;;;0.00;0.00;;;15.10;99.90;;;;;;21157420;28;20558;-47
2021/05/12 10:14:35;;;;;;;0.20;0.10;;;16.10;99.90;;;;;;21157155;28;20051;-47
2021/05/12 10:24:39;;;;;;;0.00;0.00;;;16.70;99.90;;;;;;21155978;28;20635;-47
2021/05/12 10:34:41;;;;;;;0.10;0.00;;;16.50;99.90;;;;;;21155789;28;20043;-49
2021/05/12 10:44:43;;;;;;;0.98;0.10;;;17.10;99.90;;;;;;21154577;28;20043;-47
2021/05/12 10:54:48;;;;;;;0.25;0.10;;;18.20;99.30;;;;;;21156632;28;20039;-50
2021/05/12 11:05:00;;;;;;;0.08;0.08;;;19.00;99.30;;;;;;21155379;28;20036;-50
2021/05/12 11:15:05;;;;;;;0.25;0.10;;;19.20;97.90;;;;;;21155701;28;20438;-47
2021/05/12 11:35:29;;;;;;;0.00;0.00;;;19.10;95.80;;;;;;21156627;28;20032;-47
2021/05/12 11:45:31;;;;;;;1.17;0.30;;;18.80;96.70;;;;;;21169714;28;20031;-56
2021/05/12 11:55:34;;;;;;;0.60;0.30;;;18.30;98.40;;;;;;21168775;28;20400;-49
2021/05/12 12:05:46;;;;;;;0.40;0.20;;;17.60;99.90;;;;;;21168350;28;20059;-50
2021/05/12 12:15:48;;;;;;;3.22;0.30;;;17.10;99.90;;;;;;21148944;28;20097;-56
2021/05/12 12:26:17;;;;;;;1.08;0.20;;;16.60;99.90;;;;;;21165121;28;20405;-48
2021/05/12 12:36:19;;;;;;;0.45;0.30;;;16.30;99.90;;;;;;21161850;28;20051;-49
2021/05/12 12:46:28;;;;;;;0.45;0.30;;;16.40;99.90;;;;;;21163412;28;20433;-49
2021/05/12 12:56:30;;;;;;;0.40;0.20;;;16.60;99.90;;;;;;21162706;28;20035;-51
2021/05/12 13:06:31;;;;;;;2.00;0.57;;;17.30;99.90;;;;;;21162585;28;20176;-49
2021/05/12 13:16:34;;;;;;;0.50;0.20;;;17.90;99.90;;;;;;21161615;28;20043;-50
2021/05/12 13:26:59;;;;;;;0.32;0.15;;;18.60;98.20;;;;;;21161056;28;20136;-48
2021/05/12 13:37:01;;;;;;;0.35;0.20;;;20.10;93.60;;;;;;21160045;28;20054;-47
2021/05/12 13:47:03;;;;;;;1.73;0.70;;;18.90;98.00;;;;;;21140351;28;20043;-49
2021/05/12 14:07:13;;;;;;;3.10;1.45;;;17.20;99.90;;;;;;21157736;28;20040;-47
2021/05/12 14:17:26;;;;;;;3.08;2.20;;;16.40;99.90;;;;;;21138589;28;20065;-46
2021/05/12 14:27:29;;;;;;;2.83;2.20;;;15.80;99.90;;;;;;21156582;28;20244;-46
2021/05/12 14:37:31;;;;;;;7.32;4.53;;;15.70;99.90;;;;;;21114610;28;20036;-49
2021/05/12 14:47:33;;;;;;;6.90;5.00;;;16.10;99.90;;;;;;21071161;28;20435;-49
2021/05/12 15:07:56;;;;;;;5.28;2.70;;;14.60;99.90;;;;;;21070522;28;20374;-48
2021/05/12 15:17:58;;;;;;;4.18;2.50;;;13.80;99.90;;;;;;21153355;28;20042;-48
2021/05/12 15:28:00;;;;;;;2.72;2.08;;;13.30;99.90;;;;;;21135373;28;20040;-49
2021/05/12 15:38:02;;;;;;;5.60;3.08;;;12.70;99.90;;;;;;21168529;28;20036;-49
2021/05/12 15:48:05;;;;;;;6.03;2.38;;;12.40;99.90;;;;;;21166570;28;20044;-48
2021/05/12 15:58:08;;;;;;;6.20;3.65;;;12.80;99.90;;;;;;21167102;28;20504;-48
2021/05/12 16:08:10;;;;;;;9.02;5.20;;;12.60;99.90;;;;;;21166043;28;20454;-49
2021/05/12 16:18:12;;;;;;;10.48;6.47;;;12.00;99.90;;;;;;21166388;28;20058;-49
2021/05/12 16:28:14;;;;;;;13.02;5.78;;;11.60;99.90;;;;;;21146896;28;20433;-48
2021/05/12 16:38:16;;;;;;;7.68;5.38;;;11.40;99.90;;;;;;21163835;28;20039;-49
2021/05/12 16:48:18;;;;;;;8.02;5.05;;;11.20;99.90;;;;;;21163219;28;20476;-49
2021/05/12 16:58:20;;;;;;;7.43;5.20;;;11.10;99.90;;;;;;21163681;28;20085;-48
2021/05/12 17:08:24;;;;;;;8.82;6.15;;;10.90;99.90;;;;;;21161597;28;20035;-48
2021/05/12 17:18:26;;;;;;;7.45;4.70;;;10.80;99.90;;;;;;21160456;28;20100;-48
2021/05/12 17:28:28;;;;;;;5.38;3.10;;;10.90;99.90;;;;;;21160374;28;20054;-48
2021/05/12 17:38:30;;;;;;;5.22;3.28;;;10.70;99.90;;;;;;21159240;28;20040;-48
2021/05/12 17:48:32;;;;;;;10.75;3.92;;;10.00;99.90;;;;;;21139835;28;20043;-47
2021/05/12 17:58:34;;;;;;;8.57;4.30;;;8.50;99.90;;;;;;21158365;28;20093;-46
2021/05/12 18:08:36;;;;;;;7.70;5.32;;;7.40;99.90;;;;;;21156487;28;20144;-47
2021/05/12 18:18:41;;;;;;;1.50;0.93;;;6.90;99.90;;;;;;21141658;28;20047;-47
2021/05/12 18:29:03;;;;;;;1.70;1.17;;;6.80;99.90;;;;;;21154901;28;20047;-46
2021/05/12 18:49:28;;;;;;;1.65;0.50;;;7.00;99.90;;;;;;21167689;28;20424;-46
2021/05/12 18:59:30;;;;;;;1.15;0.82;;;6.90;99.90;;;;;;21154386;28;20073;-46
2021/05/12 19:40:25;;;;;;;0.55;0.40;;;6.80;99.90;;;;;;21149892;28;20105;-46
2021/05/12 19:50:27;;;;;;;0.50;0.32;;;6.80;99.90;;;;;;21168149;28;20047;-46
2021/05/12 20:00:29;;;;;;;1.00;0.60;;;6.80;99.90;;;;;;21166407;28;20053;-47
2021/05/12 20:21:11;;;;;;;1.40;0.95;;;6.80;99.90;;;;;;21113375;28;20077;-45
2021/05/12 20:31:15;;;;;;;3.67;1.40;;;6.70;99.90;;;;;;21165436;28;20481;-45
2021/05/12 20:41:17;;;;;;;2.10;1.50;;;6.80;99.90;;;;;;21164467;28;20100;-45
2021/05/12 20:51:19;;;;;;;2.60;1.65;;;6.70;99.90;;;;;;21164232;28;20427;-46
2021/05/12 21:01:21;;;;;;;1.85;0.88;;;6.80;99.90;;;;;;21127256;28;20040;-45
2021/05/12 21:11:23;;;;;;;0.95;0.30;;;6.70;99.90;;;;;;21161663;28;20044;-47
2021/05/12 21:31:27;;;;;;;0.50;0.03;;;6.60;99.90;;;;;;21159940;28;20069;-46
2021/05/12 21:41:29;;;;;;;0.38;0.08;;;6.70;99.90;;;;;;21170350;27;20445;-47
2021/05/12 21:51:30;;;;;;;0.10;0.10;;;6.60;99.90;;;;;;21243653;27;20047;-46
2021/05/12 22:01:32;;;;;;;0.60;0.30;;;6.60;99.90;;;;;;21224551;27;20412;-46
2021/05/12 22:32:15;;;;;;;0.00;0.00;;;6.50;99.90;;;;;;21241630;27;20039;-46
2021/05/12 22:42:16;;;;;;;0.85;0.03;;;6.50;99.90;;;;;;21177320;28;20108;-45
2021/05/12 22:52:21;;;;;;;0.43;0.10;;;6.50;99.90;;;;;;21156153;28;20404;-45
2021/05/12 23:02:23;;;;;;;0.10;0.10;;;6.40;99.90;;;;;;21155346;28;20044;-45
2021/05/12 23:12:24;;;;;;;0.13;0.10;;;6.40;99.90;;;;;;21155408;28;20392;-45
2021/05/12 23:22:29;;;;;;;0.20;0.10;;;6.40;99.90;;;;;;21154509;28;20055;-46
2021/05/12 23:32:30;;;;;;;0.38;0.00;;;6.40;99.90;;;;;;21158742;28;20484;-45
2021/05/12 23:42:38;;;;;;;0.20;0.05;;;6.40;99.90;;;;;;21169575;28;20124;-46
2021/05/12 23:52:41;;;;;;;0.20;0.10;;;6.30;99.90;;;;;;21089322;28;20101;-46
